createdAt,value
2022-11-06T00:01:13.736Z,61.46
2022-11-06T00:03:41.555Z,58.78
2022-11-06T00:06:33.736Z,57.40
2022-11-06T00:09:05.493Z,57.57
2022-11-06T00:11:32.361Z,59.18
2022-11-06T00:14:01.433Z,62.75
2022-11-06T00:16:28.677Z,64.91
2022-11-06T00:18:55.736Z,64.23
2022-11-06T00:21:26.310Z,63.15
2022-11-06T00:23:55.354Z,62.43
2022-11-06T00:26:24.909Z,61.63
2022-11-06T00:28:52.827Z,61.27
2022-11-06T00:31:29.091Z,60.68
2022-11-06T00:33:57.631Z,60.41
2022-11-06T00:36:26.412Z,58.85
2022-11-06T00:38:54.986Z,57.51
2022-11-06T00:41:22.911Z,58.35
2022-11-06T00:43:55.386Z,59.48
2022-11-06T00:46:22.329Z,62.51
2022-11-06T00:48:49.584Z,64.80
2022-11-06T00:51:20.328Z,64.60
2022-11-06T00:53:47.861Z,64.14
2022-11-06T00:56:17.994Z,63.47
2022-11-06T00:58:46.224Z,62.39
2022-11-06T01:01:19.119Z,61.57
2022-11-06T01:03:51.219Z,61.13
2022-11-06T01:06:20.824Z,60.52
2022-11-06T01:08:49.101Z,60.26
2022-11-06T01:11:19.526Z,58.69
2022-11-06T01:13:49.546Z,57.44
2022-11-06T01:16:17.411Z,57.86
2022-11-06T01:18:45.125Z,59.16
2022-11-06T01:21:22.514Z,61.65
2022-11-06T01:24:14.834Z,64.63
2022-11-06T01:26:58.534Z,64.20
2022-11-06T01:29:29.380Z,63.57
2022-11-06T01:31:56.251Z,62.84
2022-11-06T01:34:23.473Z,62.21
2022-11-06T01:36:51.484Z,61.48
2022-11-06T01:39:19.201Z,61.12
2022-11-06T01:41:49.348Z,60.82
2022-11-06T01:44:34.799Z,60.37
2022-11-06T01:47:04.266Z,60.27
2022-11-06T01:49:37.402Z,58.83
2022-11-06T01:52:08.479Z,57.59
2022-11-06T01:54:39.318Z,58.54
2022-11-06T01:57:07.273Z,59.62
2022-11-06T01:59:39.533Z,63.26
2022-11-06T02:02:06.965Z,65.55
2022-11-06T02:04:40.904Z,65.01
2022-11-06T02:07:09.148Z,64.48
2022-11-06T02:09:36.401Z,63.35
2022-11-06T02:12:25.874Z,62.07
2022-11-06T02:15:23.634Z,61.54
2022-11-06T02:18:03.392Z,60.93
2022-11-06T02:20:35.040Z,58.91
2022-11-06T02:23:30.144Z,57.74
2022-11-06T02:26:23.690Z,58.11
2022-11-06T02:28:59.976Z,59.31
2022-11-06T02:31:33.987Z,62.91
2022-11-06T02:34:07.754Z,66.07
2022-11-06T02:36:39.815Z,65.73
2022-11-06T02:39:12.401Z,65.02
2022-11-06T02:41:44.155Z,64.36
2022-11-06T02:44:17.075Z,63.57
2022-11-06T02:46:50.807Z,63.20
2022-11-06T02:49:36.283Z,62.61
2022-11-06T02:52:31.960Z,62.32
2022-11-06T02:55:09.296Z,61.81
2022-11-06T02:57:41.601Z,61.30
2022-11-06T03:00:14.697Z,60.73
2022-11-06T03:02:57.608Z,60.50
2022-11-06T03:05:28.919Z,60.82
2022-11-06T03:08:25.528Z,60.45
2022-11-06T03:11:04.252Z,60.44
2022-11-06T03:13:54.280Z,60.31
2022-11-06T03:16:44.938Z,60.37
2022-11-06T03:19:27.424Z,58.55
2022-11-06T03:22:00.124Z,57.92
2022-11-06T03:24:34.187Z,58.88
2022-11-06T03:27:09.489Z,61.02
2022-11-06T03:29:45.280Z,63.42
2022-11-06T03:32:18.419Z,65.51
2022-11-06T03:34:54.108Z,65.99
2022-11-06T03:37:30.147Z,64.66
2022-11-06T03:40:01.930Z,64.39
2022-11-06T03:42:32.002Z,63.73
2022-11-06T03:45:09.289Z,63.23
2022-11-06T03:48:00.195Z,62.78
2022-11-06T03:50:33.844Z,62.78
2022-11-06T03:53:44.989Z,61.51
2022-11-06T03:56:18.170Z,61.95
2022-11-06T03:58:47.966Z,60.43
2022-11-06T04:01:21.615Z,60.33
2022-11-06T04:03:55.093Z,60.31
2022-11-06T04:06:29.397Z,59.02
2022-11-06T04:09:19.384Z,58.20
2022-11-06T04:12:07.218Z,59.39
2022-11-06T04:14:38.262Z,64.01
2022-11-06T04:17:09.742Z,65.32
2022-11-06T04:19:36.655Z,65.22
2022-11-06T04:22:24.704Z,64.08
2022-11-06T04:25:38.536Z,63.63
2022-11-06T04:28:32.206Z,62.76
2022-11-06T04:31:08.778Z,62.57
2022-11-06T04:33:53.848Z,61.94
2022-11-06T04:36:26.616Z,61.36
2022-11-06T04:39:15.700Z,60.77
2022-11-06T04:42:08.888Z,60.52
2022-11-06T04:44:40.589Z,58.51
2022-11-06T04:47:12.182Z,57.88
2022-11-06T04:49:42.076Z,59.46
2022-11-06T04:52:19.466Z,61.92
2022-11-06T04:54:46.686Z,64.46
2022-11-06T04:57:13.764Z,65.02
2022-11-06T04:59:40.913Z,65.12
2022-11-06T05:02:08.004Z,65.89
2022-11-06T05:04:35.351Z,64.08
2022-11-06T05:07:02.466Z,61.28
2022-11-06T22:07:22.585Z,63.39
2022-11-06T22:09:52.089Z,59.10
2022-11-06T22:12:20.215Z,56.13
2022-11-06T22:14:48.873Z,56.43
2022-11-06T22:17:17.530Z,57.60
2022-11-06T22:19:48.124Z,58.49
2022-11-06T22:22:17.480Z,59.55
2022-11-06T22:24:48.240Z,60.71
2022-11-06T22:27:17.085Z,64.22
2022-11-06T22:29:46.499Z,65.96
2022-11-06T22:32:15.368Z,61.77
2022-11-06T22:34:43.555Z,58.80
2022-11-06T22:37:12.545Z,55.49
2022-11-06T22:39:41.235Z,55.59
2022-11-06T22:42:09.694Z,56.59
2022-11-06T22:44:38.303Z,57.92
2022-11-06T22:47:06.912Z,58.75
2022-11-06T22:49:35.318Z,60.43
2022-11-06T22:52:03.867Z,64.28
2022-11-06T22:54:32.421Z,63.33
2022-11-06T22:57:01.004Z,60.34
2022-11-06T22:59:29.690Z,56.55
2022-11-06T23:01:58.128Z,56.51
2022-11-06T23:04:26.550Z,57.98
2022-11-06T23:06:55.440Z,58.97
2022-11-06T23:09:24.080Z,63.33
2022-11-06T23:11:52.708Z,64.70
2022-11-06T23:14:21.422Z,62.16
2022-11-06T23:17:01.131Z,57.16
2022-11-06T23:19:31.987Z,54.40
2022-11-06T23:22:19.238Z,55.41
2022-11-06T23:24:47.982Z,56.46
2022-11-06T23:27:16.671Z,58.11
2022-11-06T23:29:44.959Z,59.33
2022-11-06T23:32:13.735Z,64.13
2022-11-06T23:34:42.026Z,65.84
2022-11-06T23:37:10.292Z,60.45
2022-11-06T23:39:39.479Z,56.12
2022-11-06T23:42:07.858Z,55.30
2022-11-06T23:44:55.081Z,56.73
2022-11-06T23:47:23.868Z,57.99
2022-11-06T23:49:52.141Z,59.21
2022-11-06T23:52:21.032Z,60.37
2022-11-06T23:54:49.410Z,65.07
2022-11-06T23:57:17.898Z,66.03
2022-11-06T23:59:47.398Z,58.65
